sensor_id;sensor_type;location;lat;lon;timestamp;P1;durP1;ratioP1;P2;durP2;ratioP2
22415;SDS011;12204;50.600;4.608;2023-05-07T00:01:37;8.00;;;1.83;;
22415;SDS011;12204;50.600;4.608;2023-05-07T00:06:41;8.35;;;2.00;;
22415;SDS011;12204;50.600;4.608;2023-05-07T00:11:44;7.20;;;1.90;;
22415;SDS011;12204;50.600;4.608;2023-05-07T00:16:49;7.40;;;1.70;;
22415;SDS011;12204;50.600;4.608;2023-05-07T00:21:53;5.63;;;1.75;;
22415;SDS011;12204;50.600;4.608;2023-05-07T00:26:57;5.90;;;1.73;;
22415;SDS011;12204;50.600;4.608;2023-05-07T00:32:01;6.15;;;1.67;;
22415;SDS011;12204;50.600;4.608;2023-05-07T00:37:06;6.82;;;1.65;;
22415;SDS011;12204;50.600;4.608;2023-05-07T00:42:10;7.50;;;1.70;;
22415;SDS011;12204;50.600;4.608;2023-05-07T00:47:15;6.95;;;1.48;;
22415;SDS011;12204;50.600;4.608;2023-05-07T00:52:19;8.23;;;1.60;;
22415;SDS011;12204;50.600;4.608;2023-05-07T00:57:28;6.72;;;1.73;;
22415;SDS011;12204;50.600;4.608;2023-05-07T01:02:33;6.25;;;1.50;;
22415;SDS011;12204;50.600;4.608;2023-05-07T01:07:37;3.92;;;1.60;;
22415;SDS011;12204;50.600;4.608;2023-05-07T01:12:43;8.27;;;1.65;;
22415;SDS011;12204;50.600;4.608;2023-05-07T01:17:49;7.15;;;1.70;;
22415;SDS011;12204;50.600;4.608;2023-05-07T01:23:01;5.55;;;1.50;;
22415;SDS011;12204;50.600;4.608;2023-05-07T01:28:06;7.77;;;1.40;;
22415;SDS011;12204;50.600;4.608;2023-05-07T01:33:13;6.38;;;1.58;;
22415;SDS011;12204;50.600;4.608;2023-05-07T01:38:19;5.73;;;1.40;;
22415;SDS011;12204;50.600;4.608;2023-05-07T01:43:25;4.77;;;1.40;;
22415;SDS011;12204;50.600;4.608;2023-05-07T01:48:29;7.75;;;1.80;;
22415;SDS011;12204;50.600;4.608;2023-05-07T01:53:36;6.30;;;1.40;;
22415;SDS011;12204;50.600;4.608;2023-05-07T01:58:41;4.28;;;1.30;;
22415;SDS011;12204;50.600;4.608;2023-05-07T02:03:45;5.95;;;1.30;;
22415;SDS011;12204;50.600;4.608;2023-05-07T02:08:57;4.47;;;1.42;;
22415;SDS011;12204;50.600;4.608;2023-05-07T02:14:02;7.28;;;1.38;;
22415;SDS011;12204;50.600;4.608;2023-05-07T02:19:05;3.92;;;1.30;;
22415;SDS011;12204;50.600;4.608;2023-05-07T02:24:11;4.03;;;1.35;;
22415;SDS011;12204;50.600;4.608;2023-05-07T02:29:15;4.97;;;1.40;;
22415;SDS011;12204;50.600;4.608;2023-05-07T02:34:19;5.55;;;1.35;;
22415;SDS011;12204;50.600;4.608;2023-05-07T02:39:24;5.20;;;1.40;;
22415;SDS011;12204;50.600;4.608;2023-05-07T02:44:28;3.78;;;1.20;;
22415;SDS011;12204;50.600;4.608;2023-05-07T02:49:32;5.57;;;1.27;;
22415;SDS011;12204;50.600;4.608;2023-05-07T02:54:38;4.47;;;1.40;;
22415;SDS011;12204;50.600;4.608;2023-05-07T02:59:42;4.30;;;1.30;;
22415;SDS011;12204;50.600;4.608;2023-05-07T03:04:47;3.92;;;1.20;;
22415;SDS011;12204;50.600;4.608;2023-05-07T03:09:52;3.95;;;1.10;;
22415;SDS011;12204;50.600;4.608;2023-05-07T03:14:56;4.82;;;1.10;;
22415;SDS011;12204;50.600;4.608;2023-05-07T03:19:59;3.75;;;1.20;;
22415;SDS011;12204;50.600;4.608;2023-05-07T03:25:05;5.47;;;1.20;;
22415;SDS011;12204;50.600;4.608;2023-05-07T03:30:11;5.35;;;1.40;;
22415;SDS011;12204;50.600;4.608;2023-05-07T03:35:15;9.00;;;1.30;;
22415;SDS011;12204;50.600;4.608;2023-05-07T03:40:21;5.90;;;1.30;;
22415;SDS011;12204;50.600;4.608;2023-05-07T03:45:27;6.45;;;1.58;;
22415;SDS011;12204;50.600;4.608;2023-05-07T03:50:40;4.63;;;1.20;;
22415;SDS011;12204;50.600;4.608;2023-05-07T03:55:45;2.97;;;1.00;;
22415;SDS011;12204;50.600;4.608;2023-05-07T04:00:49;5.40;;;1.10;;
22415;SDS011;12204;50.600;4.608;2023-05-07T04:06:00;4.65;;;1.15;;
22415;SDS011;12204;50.600;4.608;2023-05-07T04:11:07;4.82;;;1.20;;
22415;SDS011;12204;50.600;4.608;2023-05-07T04:16:12;3.17;;;1.10;;
22415;SDS011;12204;50.600;4.608;2023-05-07T04:21:15;4.88;;;1.20;;
22415;SDS011;12204;50.600;4.608;2023-05-07T04:26:23;5.22;;;1.25;;
22415;SDS011;12204;50.600;4.608;2023-05-07T04:31:26;3.72;;;1.13;;
22415;SDS011;12204;50.600;4.608;2023-05-07T04:36:30;5.03;;;1.10;;
22415;SDS011;12204;50.600;4.608;2023-05-07T04:41:39;4.20;;;1.13;;
22415;SDS011;12204;50.600;4.608;2023-05-07T04:46:43;3.80;;;1.10;;
22415;SDS011;12204;50.600;4.608;2023-05-07T04:51:47;5.38;;;1.30;;
22415;SDS011;12204;50.600;4.608;2023-05-07T04:56:55;3.45;;;1.10;;
22415;SDS011;12204;50.600;4.608;2023-05-07T05:01:59;5.25;;;1.25;;
22415;SDS011;12204;50.600;4.608;2023-05-07T05:07:03;4.25;;;1.00;;
22415;SDS011;12204;50.600;4.608;2023-05-07T05:12:08;3.67;;;1.05;;
22415;SDS011;12204;50.600;4.608;2023-05-07T05:17:12;2.80;;;1.00;;
22415;SDS011;12204;50.600;4.608;2023-05-07T05:22:16;4.28;;;1.20;;
22415;SDS011;12204;50.600;4.608;2023-05-07T05:27:21;5.72;;;1.02;;
22415;SDS011;12204;50.600;4.608;2023-05-07T05:32:25;4.63;;;1.10;;
22415;SDS011;12204;50.600;4.608;2023-05-07T05:37:30;4.22;;;1.05;;
22415;SDS011;12204;50.600;4.608;2023-05-07T05:42:39;4.53;;;1.10;;
22415;SDS011;12204;50.600;4.608;2023-05-07T05:47:44;3.08;;;1.00;;
22415;SDS011;12204;50.600;4.608;2023-05-07T05:52:48;5.47;;;1.10;;
22415;SDS011;12204;50.600;4.608;2023-05-07T05:57:56;2.67;;;1.10;;
22415;SDS011;12204;50.600;4.608;2023-05-07T06:03:00;4.13;;;1.13;;
22415;SDS011;12204;50.600;4.608;2023-05-07T06:08:04;3.90;;;1.02;;
22415;SDS011;12204;50.600;4.608;2023-05-07T06:13:10;4.95;;;1.20;;
22415;SDS011;12204;50.600;4.608;2023-05-07T06:18:15;3.75;;;1.02;;
22415;SDS011;12204;50.600;4.608;2023-05-07T06:23:18;4.05;;;1.00;;
22415;SDS011;12204;50.600;4.608;2023-05-07T06:28:24;7.35;;;1.20;;
22415;SDS011;12204;50.600;4.608;2023-05-07T06:33:29;4.15;;;1.27;;
22415;SDS011;12204;50.600;4.608;2023-05-07T06:38:34;18.13;;;1.65;;
22415;SDS011;12204;50.600;4.608;2023-05-07T06:43:39;12.35;;;1.50;;
22415;SDS011;12204;50.600;4.608;2023-05-07T06:48:59;11.02;;;1.42;;
22415;SDS011;12204;50.600;4.608;2023-05-07T06:54:03;9.73;;;1.50;;
22415;SDS011;12204;50.600;4.608;2023-05-07T06:59:09;10.32;;;1.50;;
22415;SDS011;12204;50.600;4.608;2023-05-07T07:04:15;6.95;;;1.50;;
22415;SDS011;12204;50.600;4.608;2023-05-07T07:09:24;6.05;;;1.60;;
22415;SDS011;12204;50.600;4.608;2023-05-07T07:14:30;4.85;;;1.60;;
22415;SDS011;12204;50.600;4.608;2023-05-07T07:19:33;12.85;;;1.92;;
22415;SDS011;12204;50.600;4.608;2023-05-07T07:24:38;8.82;;;1.80;;
22415;SDS011;12204;50.600;4.608;2023-05-07T07:29:45;7.95;;;1.98;;
22415;SDS011;12204;50.600;4.608;2023-05-07T07:34:49;8.05;;;1.90;;
22415;SDS011;12204;50.600;4.608;2023-05-07T07:39:52;11.93;;;1.73;;
22415;SDS011;12204;50.600;4.608;2023-05-07T07:44:57;9.65;;;2.00;;
22415;SDS011;12204;50.600;4.608;2023-05-07T07:50:05;10.55;;;1.80;;
22415;SDS011;12204;50.600;4.608;2023-05-07T07:55:11;6.72;;;1.75;;
22415;SDS011;12204;50.600;4.608;2023-05-07T08:00:17;8.63;;;1.80;;
22415;SDS011;12204;50.600;4.608;2023-05-07T08:05:26;8.00;;;1.70;;
22415;SDS011;12204;50.600;4.608;2023-05-07T08:10:30;8.20;;;1.73;;
22415;SDS011;12204;50.600;4.608;2023-05-07T08:15:43;6.55;;;1.80;;
22415;SDS011;12204;50.600;4.608;2023-05-07T08:20:47;7.05;;;1.80;;
22415;SDS011;12204;50.600;4.608;2023-05-07T08:30:59;6.30;;;1.60;;
22415;SDS011;12204;50.600;4.608;2023-05-07T08:36:08;7.72;;;1.60;;
22415;SDS011;12204;50.600;4.608;2023-05-07T08:41:12;5.97;;;1.70;;
22415;SDS011;12204;50.600;4.608;2023-05-07T08:46:21;5.90;;;2.00;;
22415;SDS011;12204;50.600;4.608;2023-05-07T08:51:28;7.72;;;1.70;;
22415;SDS011;12204;50.600;4.608;2023-05-07T08:56:33;5.10;;;1.70;;
22415;SDS011;12204;50.600;4.608;2023-05-07T09:01:38;6.05;;;1.75;;
22415;SDS011;12204;50.600;4.608;2023-05-07T09:06:42;7.18;;;1.60;;
22415;SDS011;12204;50.600;4.608;2023-05-07T09:11:47;6.00;;;1.65;;
22415;SDS011;12204;50.600;4.608;2023-05-07T09:16:55;8.90;;;2.03;;
22415;SDS011;12204;50.600;4.608;2023-05-07T09:21:59;10.88;;;1.70;;
22415;SDS011;12204;50.600;4.608;2023-05-07T09:27:10;22.42;;;2.00;;
22415;SDS011;12204;50.600;4.608;2023-05-07T09:32:17;22.30;;;2.20;;
22415;SDS011;12204;50.600;4.608;2023-05-07T09:37:21;21.27;;;2.47;;
22415;SDS011;12204;50.600;4.608;2023-05-07T09:42:25;22.58;;;2.28;;
22415;SDS011;12204;50.600;4.608;2023-05-07T09:47:35;18.67;;;2.08;;
22415;SDS011;12204;50.600;4.608;2023-05-07T09:52:42;14.88;;;2.10;;
22415;SDS011;12204;50.600;4.608;2023-05-07T09:57:49;11.25;;;2.00;;
22415;SDS011;12204;50.600;4.608;2023-05-07T10:02:56;19.07;;;2.13;;
22415;SDS011;12204;50.600;4.608;2023-05-07T10:08:10;17.27;;;2.20;;
22415;SDS011;12204;50.600;4.608;2023-05-07T10:13:15;31.27;;;2.50;;
22415;SDS011;12204;50.600;4.608;2023-05-07T10:18:26;31.30;;;2.60;;
22415;SDS011;12204;50.600;4.608;2023-05-07T10:23:40;18.67;;;2.35;;
22415;SDS011;12204;50.600;4.608;2023-05-07T10:28:49;20.55;;;3.00;;
22415;SDS011;12204;50.600;4.608;2023-05-07T10:34:02;15.88;;;3.00;;
22415;SDS011;12204;50.600;4.608;2023-05-07T10:39:12;34.13;;;9.23;;
22415;SDS011;12204;50.600;4.608;2023-05-07T10:44:24;34.58;;;8.85;;
22415;SDS011;12204;50.600;4.608;2023-05-07T10:54:45;19.20;;;5.60;;
22415;SDS011;12204;50.600;4.608;2023-05-07T10:59:50;25.60;;;5.88;;
22415;SDS011;12204;50.600;4.608;2023-05-07T11:05:19;19.73;;;5.28;;
22415;SDS011;12204;50.600;4.608;2023-05-07T11:10:50;20.63;;;4.78;;
22415;SDS011;12204;50.600;4.608;2023-05-07T11:16:03;15.25;;;4.60;;
22415;SDS011;12204;50.600;4.608;2023-05-07T11:21:14;19.83;;;4.18;;
22415;SDS011;12204;50.600;4.608;2023-05-07T11:27:02;19.52;;;4.40;;
22415;SDS011;12204;50.600;4.608;2023-05-07T11:32:06;14.75;;;2.97;;
22415;SDS011;12204;50.600;4.608;2023-05-07T11:37:18;15.70;;;2.80;;
22415;SDS011;12204;50.600;4.608;2023-05-07T11:42:31;17.95;;;4.10;;
22415;SDS011;12204;50.600;4.608;2023-05-07T11:47:37;16.33;;;3.10;;
22415;SDS011;12204;50.600;4.608;2023-05-07T11:52:51;17.20;;;3.38;;
22415;SDS011;12204;50.600;4.608;2023-05-07T11:57:54;13.48;;;3.20;;
22415;SDS011;12204;50.600;4.608;2023-05-07T12:03:02;23.33;;;3.38;;
22415;SDS011;12204;50.600;4.608;2023-05-07T12:08:08;15.52;;;3.15;;
22415;SDS011;12204;50.600;4.608;2023-05-07T12:13:17;15.18;;;3.20;;
22415;SDS011;12204;50.600;4.608;2023-05-07T12:18:22;16.35;;;3.00;;
22415;SDS011;12204;50.600;4.608;2023-05-07T12:23:28;14.57;;;3.30;;
22415;SDS011;12204;50.600;4.608;2023-05-07T12:28:35;14.75;;;2.85;;
22415;SDS011;12204;50.600;4.608;2023-05-07T12:33:40;9.85;;;2.75;;
22415;SDS011;12204;50.600;4.608;2023-05-07T12:38:46;10.30;;;2.65;;
22415;SDS011;12204;50.600;4.608;2023-05-07T12:43:52;8.90;;;2.50;;
22415;SDS011;12204;50.600;4.608;2023-05-07T12:48:59;10.43;;;2.63;;
22415;SDS011;12204;50.600;4.608;2023-05-07T12:54:04;11.07;;;2.75;;
22415;SDS011;12204;50.600;4.608;2023-05-07T12:59:08;9.77;;;2.42;;
22415;SDS011;12204;50.600;4.608;2023-05-07T13:04:11;9.63;;;2.28;;
22415;SDS011;12204;50.600;4.608;2023-05-07T13:09:16;11.63;;;2.50;;
22415;SDS011;12204;50.600;4.608;2023-05-07T13:14:19;7.55;;;2.20;;
22415;SDS011;12204;50.600;4.608;2023-05-07T13:19:23;8.27;;;2.30;;
22415;SDS011;12204;50.600;4.608;2023-05-07T13:24:28;8.45;;;2.45;;
22415;SDS011;12204;50.600;4.608;2023-05-07T13:29:31;9.05;;;2.10;;
22415;SDS011;12204;50.600;4.608;2023-05-07T13:34:35;6.72;;;2.10;;
22415;SDS011;12204;50.600;4.608;2023-05-07T13:39:40;6.88;;;2.38;;
22415;SDS011;12204;50.600;4.608;2023-05-07T13:44:43;8.43;;;2.10;;
22415;SDS011;12204;50.600;4.608;2023-05-07T13:49:47;5.47;;;1.90;;
22415;SDS011;12204;50.600;4.608;2023-05-07T13:54:53;8.25;;;2.00;;
22415;SDS011;12204;50.600;4.608;2023-05-07T13:59:57;7.22;;;2.00;;
22415;SDS011;12204;50.600;4.608;2023-05-07T14:05:01;5.53;;;1.90;;
22415;SDS011;12204;50.600;4.608;2023-05-07T14:10:07;6.88;;;1.88;;
22415;SDS011;12204;50.600;4.608;2023-05-07T14:15:13;4.70;;;1.60;;
22415;SDS011;12204;50.600;4.608;2023-05-07T14:20:17;5.10;;;1.90;;
22415;SDS011;12204;50.600;4.608;2023-05-07T14:25:22;4.53;;;1.70;;
22415;SDS011;12204;50.600;4.608;2023-05-07T14:30:26;5.57;;;1.60;;
22415;SDS011;12204;50.600;4.608;2023-05-07T14:35:29;4.15;;;1.70;;
22415;SDS011;12204;50.600;4.608;2023-05-07T14:40:34;4.63;;;1.73;;
22415;SDS011;12204;50.600;4.608;2023-05-07T14:45:38;4.82;;;1.42;;
22415;SDS011;12204;50.600;4.608;2023-05-07T14:50:41;4.03;;;1.40;;
22415;SDS011;12204;50.600;4.608;2023-05-07T14:55:46;2.75;;;1.20;;
22415;SDS011;12204;50.600;4.608;2023-05-07T15:00:50;3.88;;;1.30;;
22415;SDS011;12204;50.600;4.608;2023-05-07T15:05:54;4.13;;;1.10;;
22415;SDS011;12204;50.600;4.608;2023-05-07T15:10:58;4.25;;;1.38;;
22415;SDS011;12204;50.600;4.608;2023-05-07T15:16:02;7.70;;;1.30;;
22415;SDS011;12204;50.600;4.608;2023-05-07T15:21:06;5.90;;;1.30;;
22415;SDS011;12204;50.600;4.608;2023-05-07T15:26:12;7.95;;;1.42;;
22415;SDS011;12204;50.600;4.608;2023-05-07T15:31:15;4.43;;;1.30;;
22415;SDS011;12204;50.600;4.608;2023-05-07T15:36:19;4.95;;;1.55;;
22415;SDS011;12204;50.600;4.608;2023-05-07T15:41:25;4.22;;;1.50;;
22415;SDS011;12204;50.600;4.608;2023-05-07T15:46:28;3.95;;;1.48;;
22415;SDS011;12204;50.600;4.608;2023-05-07T15:51:34;5.32;;;1.30;;
22415;SDS011;12204;50.600;4.608;2023-05-07T15:56:39;7.75;;;1.90;;
22415;SDS011;12204;50.600;4.608;2023-05-07T16:01:42;9.52;;;2.10;;
22415;SDS011;12204;50.600;4.608;2023-05-07T16:06:46;7.85;;;2.00;;
22415;SDS011;12204;50.600;4.608;2023-05-07T16:11:51;5.53;;;1.85;;
22415;SDS011;12204;50.600;4.608;2023-05-07T16:16:55;7.10;;;2.20;;
22415;SDS011;12204;50.600;4.608;2023-05-07T16:21:58;5.70;;;2.03;;
22415;SDS011;12204;50.600;4.608;2023-05-07T16:27:03;7.35;;;2.30;;
22415;SDS011;12204;50.600;4.608;2023-05-07T16:32:07;5.57;;;2.20;;
22415;SDS011;12204;50.600;4.608;2023-05-07T16:37:11;4.68;;;2.10;;
22415;SDS011;12204;50.600;4.608;2023-05-07T16:42:16;4.80;;;2.00;;
22415;SDS011;12204;50.600;4.608;2023-05-07T16:47:19;4.82;;;1.90;;
22415;SDS011;12204;50.600;4.608;2023-05-07T16:52:23;3.22;;;1.88;;
22415;SDS011;12204;50.600;4.608;2023-05-07T16:57:28;4.68;;;1.73;;
22415;SDS011;12204;50.600;4.608;2023-05-07T17:02:32;4.05;;;1.73;;
22415;SDS011;12204;50.600;4.608;2023-05-07T17:07:36;4.38;;;1.88;;
22415;SDS011;12204;50.600;4.608;2023-05-07T17:12:41;4.65;;;1.70;;
22415;SDS011;12204;50.600;4.608;2023-05-07T17:17:44;4.00;;;1.75;;
22415;SDS011;12204;50.600;4.608;2023-05-07T17:22:48;5.68;;;1.60;;
22415;SDS011;12204;50.600;4.608;2023-05-07T17:27:53;7.70;;;1.83;;
22415;SDS011;12204;50.600;4.608;2023-05-07T17:32:56;10.82;;;2.10;;
22415;SDS011;12204;50.600;4.608;2023-05-07T17:38:17;7.07;;;2.08;;
22415;SDS011;12204;50.600;4.608;2023-05-07T17:43:22;13.15;;;1.85;;
22415;SDS011;12204;50.600;4.608;2023-05-07T17:48:25;11.60;;;2.17;;
22415;SDS011;12204;50.600;4.608;2023-05-07T17:53:29;9.35;;;1.80;;
22415;SDS011;12204;50.600;4.608;2023-05-07T17:58:34;10.40;;;2.00;;
22415;SDS011;12204;50.600;4.608;2023-05-07T18:03:57;9.35;;;1.90;;
22415;SDS011;12204;50.600;4.608;2023-05-07T18:09:01;9.27;;;2.00;;
22415;SDS011;12204;50.600;4.608;2023-05-07T18:14:06;6.13;;;1.98;;
22415;SDS011;12204;50.600;4.608;2023-05-07T18:19:10;7.07;;;2.10;;
22415;SDS011;12204;50.600;4.608;2023-05-07T18:24:13;6.38;;;2.05;;
22415;SDS011;12204;50.600;4.608;2023-05-07T18:29:18;7.38;;;1.95;;
22415;SDS011;12204;50.600;4.608;2023-05-07T18:34:22;6.68;;;1.98;;
22415;SDS011;12204;50.600;4.608;2023-05-07T18:39:25;6.60;;;1.83;;
22415;SDS011;12204;50.600;4.608;2023-05-07T18:44:30;4.20;;;1.60;;
22415;SDS011;12204;50.600;4.608;2023-05-07T18:49:37;5.90;;;2.20;;
22415;SDS011;12204;50.600;4.608;2023-05-07T18:54:41;5.82;;;1.80;;
22415;SDS011;12204;50.600;4.608;2023-05-07T18:59:47;6.15;;;2.00;;
22415;SDS011;12204;50.600;4.608;2023-05-07T19:04:50;5.93;;;1.80;;
22415;SDS011;12204;50.600;4.608;2023-05-07T19:09:54;6.50;;;1.70;;
22415;SDS011;12204;50.600;4.608;2023-05-07T19:15:08;4.85;;;2.00;;
22415;SDS011;12204;50.600;4.608;2023-05-07T19:20:12;6.90;;;1.80;;
22415;SDS011;12204;50.600;4.608;2023-05-07T19:25:16;4.95;;;2.00;;
22415;SDS011;12204;50.600;4.608;2023-05-07T19:30:21;5.15;;;1.70;;
22415;SDS011;12204;50.600;4.608;2023-05-07T19:35:25;5.70;;;1.70;;
22415;SDS011;12204;50.600;4.608;2023-05-07T19:40:28;5.53;;;1.58;;
22415;SDS011;12204;50.600;4.608;2023-05-07T19:45:34;8.25;;;1.73;;
22415;SDS011;12204;50.600;4.608;2023-05-07T19:50:38;5.45;;;1.60;;
22415;SDS011;12204;50.600;4.608;2023-05-07T19:55:41;6.43;;;1.70;;
22415;SDS011;12204;50.600;4.608;2023-05-07T20:00:46;5.53;;;1.50;;
22415;SDS011;12204;50.600;4.608;2023-05-07T20:05:49;4.78;;;1.80;;
22415;SDS011;12204;50.600;4.608;2023-05-07T20:10:53;3.33;;;1.63;;
22415;SDS011;12204;50.600;4.608;2023-05-07T20:16:00;4.13;;;1.83;;
22415;SDS011;12204;50.600;4.608;2023-05-07T20:21:04;6.20;;;1.48;;
22415;SDS011;12204;50.600;4.608;2023-05-07T20:26:08;5.07;;;1.60;;
22415;SDS011;12204;50.600;4.608;2023-05-07T20:31:13;4.47;;;1.60;;
22415;SDS011;12204;50.600;4.608;2023-05-07T20:36:17;4.25;;;1.50;;
22415;SDS011;12204;50.600;4.608;2023-05-07T20:41:20;3.53;;;1.50;;
22415;SDS011;12204;50.600;4.608;2023-05-07T20:46:27;5.90;;;1.70;;
22415;SDS011;12204;50.600;4.608;2023-05-07T20:51:30;4.90;;;1.60;;
22415;SDS011;12204;50.600;4.608;2023-05-07T20:56:34;4.80;;;1.70;;
22415;SDS011;12204;50.600;4.608;2023-05-07T21:01:38;7.90;;;1.70;;
22415;SDS011;12204;50.600;4.608;2023-05-07T21:06:43;11.65;;;1.90;;
22415;SDS011;12204;50.600;4.608;2023-05-07T21:11:46;5.90;;;1.50;;
22415;SDS011;12204;50.600;4.608;2023-05-07T21:16:51;8.60;;;1.77;;
22415;SDS011;12204;50.600;4.608;2023-05-07T21:21:54;8.27;;;1.70;;
22415;SDS011;12204;50.600;4.608;2023-05-07T21:26:58;7.45;;;1.70;;
22415;SDS011;12204;50.600;4.608;2023-05-07T21:32:04;4.57;;;1.88;;
22415;SDS011;12204;50.600;4.608;2023-05-07T21:37:08;6.75;;;1.73;;
22415;SDS011;12204;50.600;4.608;2023-05-07T21:42:11;4.55;;;1.60;;
22415;SDS011;12204;50.600;4.608;2023-05-07T21:47:16;4.82;;;1.45;;
22415;SDS011;12204;50.600;4.608;2023-05-07T21:52:19;7.10;;;1.70;;
22415;SDS011;12204;50.600;4.608;2023-05-07T21:57:26;4.13;;;1.38;;
22415;SDS011;12204;50.600;4.608;2023-05-07T22:02:31;4.57;;;1.70;;
22415;SDS011;12204;50.600;4.608;2023-05-07T22:07:34;4.68;;;1.60;;
22415;SDS011;12204;50.600;4.608;2023-05-07T22:12:38;5.90;;;1.48;;
22415;SDS011;12204;50.600;4.608;2023-05-07T22:17:43;3.20;;;1.38;;
22415;SDS011;12204;50.600;4.608;2023-05-07T22:22:47;4.07;;;1.40;;
22415;SDS011;12204;50.600;4.608;2023-05-07T22:27:53;3.58;;;1.38;;
22415;SDS011;12204;50.600;4.608;2023-05-07T22:32:58;3.17;;;1.38;;
22415;SDS011;12204;50.600;4.608;2023-05-07T22:38:01;4.10;;;1.30;;
22415;SDS011;12204;50.600;4.608;2023-05-07T22:43:05;4.35;;;1.63;;
22415;SDS011;12204;50.600;4.608;2023-05-07T22:48:10;5.00;;;1.75;;
22415;SDS011;12204;50.600;4.608;2023-05-07T22:53:13;7.00;;;1.45;;
22415;SDS011;12204;50.600;4.608;2023-05-07T22:58:17;5.10;;;1.30;;
22415;SDS011;12204;50.600;4.608;2023-05-07T23:03:22;6.20;;;1.45;;
22415;SDS011;12204;50.600;4.608;2023-05-07T23:08:25;4.13;;;1.40;;
22415;SDS011;12204;50.600;4.608;2023-05-07T23:13:28;4.38;;;1.48;;
22415;SDS011;12204;50.600;4.608;2023-05-07T23:18:33;5.70;;;1.50;;
22415;SDS011;12204;50.600;4.608;2023-05-07T23:23:37;3.42;;;1.42;;
22415;SDS011;12204;50.600;4.608;2023-05-07T23:28:40;3.58;;;1.50;;
22415;SDS011;12204;50.600;4.608;2023-05-07T23:33:45;3.08;;;1.30;;
22415;SDS011;12204;50.600;4.608;2023-05-07T23:38:48;3.95;;;1.40;;
22415;SDS011;12204;50.600;4.608;2023-05-07T23:43:52;3.63;;;1.40;;
22415;SDS011;12204;50.600;4.608;2023-05-07T23:48:57;3.20;;;1.20;;
22415;SDS011;12204;50.600;4.608;2023-05-07T23:54:00;3.58;;;1.40;;
22415;SDS011;12204;50.600;4.608;2023-05-07T23:59:03;4.53;;;1.40;;
